createdAt,value
2022-09-10T00:01:18.516Z,98008.75
2022-09-10T00:03:45.900Z,98010.53
2022-09-10T00:06:12.604Z,98015.31
2022-09-10T00:08:40.011Z,98017.53
2022-09-10T00:11:10.393Z,98016.44
2022-09-10T00:13:39.386Z,98016.03
2022-09-10T00:16:10.879Z,98017.81
2022-09-10T00:18:39.123Z,98017.81
2022-09-10T00:21:10.424Z,98008.06
2022-09-10T00:23:37.426Z,98016.00
2022-09-10T00:26:14.840Z,98015.00
2022-09-10T00:28:43.042Z,98009.03
2022-09-10T00:31:10.935Z,98010.56
2022-09-10T00:33:37.806Z,98019.34
2022-09-10T00:36:15.674Z,98013.06
2022-09-10T00:38:42.173Z,98015.59
2022-09-10T00:41:08.704Z,98003.03
2022-09-10T00:44:07.598Z,98007.94
2022-09-10T00:46:51.343Z,98010.16
2022-09-10T00:49:40.861Z,98007.22
2022-09-10T00:52:07.803Z,98002.63
2022-09-10T00:54:37.155Z,98011.13
2022-09-10T00:57:12.382Z,98013.06
2022-09-10T00:59:46.402Z,98014.75
2022-09-10T01:02:14.817Z,98011.41
2022-09-10T01:04:42.872Z,98008.59
2022-09-10T01:07:12.342Z,98004.16
2022-09-10T01:09:40.676Z,98014.06
2022-09-10T01:12:40.143Z,98007.78
2022-09-10T01:15:28.764Z,98010.41
2022-09-10T01:18:41.290Z,98008.91
2022-09-10T01:21:46.755Z,98001.81
2022-09-10T01:24:38.958Z,98000.25
2022-09-10T01:27:26.594Z,98008.09
2022-09-10T01:30:04.500Z,97999.72
2022-09-10T01:32:54.527Z,98000.56
2022-09-10T01:35:50.354Z,98008.09
2022-09-10T01:38:38.763Z,97999.84
2022-09-10T01:41:05.826Z,98004.44
2022-09-10T01:43:33.171Z,98001.38
2022-09-10T01:46:24.583Z,98001.66
2022-09-10T01:49:27.512Z,97997.47
2022-09-10T01:52:26.203Z,98001.38
2022-09-10T01:54:52.531Z,97994.84
2022-09-10T01:57:21.730Z,97992.88
2022-09-10T02:00:08.650Z,97986.31
2022-09-10T02:03:06.215Z,97988.94
2022-09-10T02:05:37.160Z,97978.91
2022-09-10T02:08:17.203Z,97975.16
2022-09-10T02:10:59.191Z,97969.53
2022-09-10T02:13:29.765Z,97966.63
2022-09-10T02:15:56.654Z,97971.63
2022-09-10T02:18:25.542Z,97973.19
2022-09-10T02:20:56.013Z,97971.66
2022-09-10T02:23:33.050Z,97972.91
2022-09-10T02:25:59.528Z,97975.56
2022-09-10T02:28:26.858Z,97974.28
2022-09-10T02:30:53.311Z,97975.84
2022-09-10T02:33:19.746Z,97976.41
2022-09-10T02:35:47.725Z,97977.91
2022-09-10T02:38:14.616Z,97974.81
2022-09-10T02:40:43.097Z,97977.78
2022-09-10T02:43:09.611Z,97974.31
2022-09-10T02:45:37.458Z,97977.19
2022-09-10T02:48:04.255Z,97983.88
2022-09-10T02:50:31.948Z,97983.75
2022-09-10T02:52:58.375Z,97985.56
2022-09-10T02:55:25.231Z,97985.25
2022-09-10T02:57:51.685Z,97986.25
2022-09-10T03:00:20.133Z,97979.28
2022-09-10T03:02:50.540Z,97979.56
2022-09-10T03:05:17.880Z,97978.31
2022-09-10T03:07:44.776Z,97977.84
2022-09-10T03:10:11.543Z,97975.09
2022-09-10T03:12:39.071Z,97973.09
2022-09-10T03:15:06.852Z,97975.63
2022-09-10T03:17:33.286Z,97980.06
2022-09-10T03:19:59.873Z,97975.47
2022-09-10T03:22:26.318Z,97976.31
2022-09-10T03:24:53.137Z,97970.84
2022-09-10T03:27:20.675Z,97974.19
2022-09-10T03:29:47.441Z,97971.56
2022-09-10T03:32:13.859Z,97975.03
2022-09-10T03:34:40.299Z,97978.13
2022-09-10T03:37:06.913Z,97973.81
2022-09-10T03:39:33.388Z,97973.09
2022-09-10T03:41:59.871Z,97970.75
2022-09-10T03:44:26.332Z,97973.69
2022-09-10T03:46:52.814Z,97973.81
2022-09-10T03:49:19.286Z,97975.09
2022-09-10T03:51:45.976Z,97976.19
2022-09-10T03:54:13.840Z,97974.53
2022-09-10T03:56:40.468Z,97979.84
2022-09-10T03:59:07.039Z,97983.72
2022-09-10T04:01:33.583Z,97980.78
2022-09-10T04:04:00.052Z,97968.50
2022-09-10T04:06:26.547Z,97964.72
2022-09-10T04:08:53.009Z,97970.00
2022-09-10T04:11:20.335Z,97968.06
2022-09-10T04:13:48.402Z,97963.88
2022-09-10T04:16:16.543Z,97974.19
2022-09-10T04:18:43.092Z,97968.91
2022-09-10T04:21:09.710Z,97966.25
2022-09-10T04:23:36.211Z,97970.56
2022-09-10T04:26:14.414Z,97968.91
2022-09-10T04:28:41.678Z,97969.47
2022-09-10T04:31:08.256Z,97972.13
2022-09-10T04:33:34.965Z,97967.25
2022-09-10T04:36:02.034Z,97965.97
2022-09-10T04:38:30.286Z,97973.66
2022-09-10T04:40:58.375Z,97976.69
2022-09-10T04:43:25.839Z,97975.56
2022-09-10T04:45:55.789Z,97968.63
2022-09-10T04:48:23.603Z,97978.94
2022-09-10T04:51:14.785Z,97975.97
2022-09-10T04:53:37.851Z,97980.06
2022-09-10T04:56:04.436Z,97983.53
2022-09-10T04:58:34.260Z,97984.81
2022-09-10T05:01:04.508Z,97994.03
2022-09-10T05:03:31.019Z,97990.66
2022-09-10T05:05:57.488Z,97985.78
2022-09-10T05:08:24.020Z,97997.50
2022-09-10T05:10:50.546Z,97989.38
2022-09-10T05:13:17.631Z,97995.69
2022-09-10T05:15:44.220Z,97996.13
2022-09-10T05:18:10.869Z,97989.28
2022-09-10T05:20:37.682Z,97989.56
2022-09-10T05:23:04.289Z,97991.00
2022-09-10T05:25:30.805Z,97986.22
2022-09-10T05:27:57.290Z,97988.44
2022-09-10T05:30:23.723Z,97990.38
2022-09-10T05:32:53.448Z,97992.19
2022-09-10T05:35:20.239Z,97999.84
2022-09-10T05:37:46.683Z,98000.09
2022-09-10T05:40:16.238Z,97997.16
2022-09-10T05:42:42.927Z,97997.41
2022-09-10T05:45:10.191Z,98003.22
2022-09-10T05:47:37.883Z,97996.13
2022-09-10T05:50:06.606Z,97995.81
2022-09-10T05:52:33.136Z,98000.16
2022-09-10T05:54:59.940Z,98004.31
2022-09-10T05:57:26.673Z,98001.38
2022-09-10T05:59:53.819Z,98009.50
2022-09-10T06:02:24.118Z,97998.56
2022-09-10T06:04:50.917Z,98003.59
2022-09-10T06:07:17.828Z,98009.72
2022-09-10T06:09:44.349Z,98010.59
2022-09-10T06:12:10.802Z,98013.63
2022-09-10T06:14:37.354Z,98015.28
2022-09-10T06:17:04.330Z,98022.25
2022-09-10T06:19:30.779Z,98012.34
2022-09-10T06:21:57.436Z,98022.50
2022-09-10T06:24:24.458Z,98022.34
2022-09-10T06:26:50.960Z,98027.53
2022-09-10T06:29:19.150Z,98025.44
2022-09-10T06:31:47.446Z,98028.63
2022-09-10T06:34:14.178Z,98035.16
2022-09-10T06:36:41.383Z,98032.88
2022-09-10T06:39:07.936Z,98037.22
2022-09-10T06:41:34.573Z,98032.59
2022-09-10T06:44:01.250Z,98035.25
2022-09-10T06:49:14.998Z,98035.84
2022-09-10T06:51:42.378Z,98035.84
2022-09-10T06:54:08.899Z,98039.56
2022-09-10T06:56:35.365Z,98038.31
2022-09-10T06:59:02.770Z,98041.63
2022-09-10T07:01:29.785Z,98044.44
2022-09-10T07:03:59.320Z,98042.63
2022-09-10T07:06:28.254Z,98047.78
2022-09-10T07:08:58.487Z,98046.94
2022-09-10T07:11:28.618Z,98050.59
2022-09-10T07:13:55.136Z,98039.69
2022-09-10T07:16:25.599Z,98051.97
2022-09-10T07:18:55.723Z,98047.56
2022-09-10T07:21:25.246Z,98046.66
2022-09-10T07:23:57.564Z,98044.69
2022-09-10T07:26:24.658Z,98045.38
2022-09-10T07:28:52.098Z,98050.78
2022-09-10T07:31:27.248Z,98054.28
2022-09-10T07:33:55.166Z,98047.03
2022-09-10T07:36:21.894Z,98053.88
2022-09-10T07:39:03.191Z,98048.94
2022-09-10T07:41:33.852Z,98055.66
2022-09-10T07:44:00.328Z,98060.03
2022-09-10T07:46:28.258Z,98061.56
2022-09-10T07:48:58.276Z,98059.72
2022-09-10T07:51:27.762Z,98061.38
2022-09-10T07:53:58.967Z,98061.78
2022-09-10T07:56:25.693Z,98066.63
2022-09-10T07:58:53.833Z,98063.13
2022-09-10T08:01:20.787Z,98066.81
2022-09-10T08:03:47.373Z,98064.25
2022-09-10T08:06:14.631Z,98060.81
2022-09-10T08:08:42.658Z,98065.69
2022-09-10T08:11:17.276Z,98065.56
2022-09-10T08:13:47.099Z,98063.28
2022-09-10T08:16:20.556Z,98073.22
2022-09-10T08:18:48.549Z,98075.25
2022-09-10T08:21:17.515Z,98075.69
2022-09-10T08:23:50.901Z,98076.31
2022-09-10T08:26:18.540Z,98079.28
2022-09-10T08:28:45.027Z,98078.78
2022-09-10T08:31:12.961Z,98076.28
2022-09-10T08:33:40.498Z,98082.91
2022-09-10T08:36:12.012Z,98086.88
2022-09-10T08:38:40.822Z,98085.88
2022-09-10T08:41:23.462Z,98080.25
2022-09-10T08:44:03.258Z,98087.88
2022-09-10T08:47:00.247Z,98090.50
2022-09-10T08:49:51.167Z,98088.44
2022-09-10T08:52:43.747Z,98089.75
2022-09-10T08:55:22.008Z,98095.13
2022-09-10T08:58:13.251Z,98082.00
2022-09-10T09:00:45.199Z,98089.34
2022-09-10T09:03:27.764Z,98080.03
2022-09-10T09:06:00.547Z,98082.69
2022-09-10T09:08:40.983Z,98081.03
2022-09-10T09:11:49.928Z,98084.84
2022-09-10T09:15:08.976Z,98080.66
2022-09-10T09:18:18.469Z,98087.63
2022-09-10T09:20:54.716Z,98085.25
2022-09-10T09:23:51.793Z,98093.38
2022-09-10T09:26:35.850Z,98097.81
2022-09-10T09:29:12.719Z,98105.97
2022-09-10T09:31:46.987Z,98098.56
2022-09-10T09:34:50.938Z,98097.69
2022-09-10T09:37:26.875Z,98104.50
2022-09-10T09:40:13.389Z,98098.31
2022-09-10T09:42:44.341Z,98104.06
2022-09-10T09:45:28.194Z,98106.63
2022-09-10T09:47:55.747Z,98102.06
2022-09-10T09:50:22.912Z,98111.59
2022-09-10T09:52:56.238Z,98104.25
2022-09-10T09:55:40.119Z,98097.19
2022-09-10T09:58:21.809Z,98095.72
2022-09-10T10:01:03.470Z,98099.44
2022-09-10T10:03:35.940Z,98092.47
2022-09-10T10:06:10.183Z,98093.00
2022-09-10T10:08:44.979Z,98091.84
2022-09-10T10:11:21.176Z,98090.50
2022-09-10T10:13:52.862Z,98092.16
2022-09-10T10:16:37.770Z,98092.50
2022-09-10T10:19:37.393Z,98099.47
2022-09-10T10:22:18.691Z,98088.25
2022-09-10T10:24:48.647Z,98094.41
2022-09-10T10:27:23.088Z,98093.56
2022-09-10T10:30:01.472Z,98091.94
2022-09-10T10:32:42.339Z,98084.44
2022-09-10T10:35:46.350Z,98084.63
2022-09-10T10:38:37.624Z,98089.25
2022-09-10T10:41:16.226Z,98086.09
2022-09-10T10:44:05.584Z,98083.06
2022-09-10T10:46:56.836Z,98090.66
2022-09-10T10:49:59.919Z,98088.53
2022-09-10T10:52:57.126Z,98087.38
2022-09-10T10:55:33.570Z,98096.72
2022-09-10T10:58:02.768Z,98089.19
2022-09-10T11:00:45.976Z,98094.41
2022-09-10T11:03:27.243Z,98100.75
2022-09-10T11:06:20.565Z,98082.97
2022-09-10T11:09:14.538Z,98085.31
2022-09-10T11:11:56.224Z,98086.16
2022-09-10T11:14:35.893Z,98086.00
2022-09-10T11:17:15.036Z,98084.00
2022-09-10T11:20:31.497Z,98079.66
2022-09-10T11:23:20.718Z,98077.16
2022-09-10T11:26:10.673Z,98070.66
2022-09-10T11:28:55.841Z,98080.84
2022-09-10T11:31:41.934Z,98077.81
2022-09-10T11:34:35.187Z,98072.84
2022-09-10T11:37:52.369Z,98081.00
2022-09-10T11:40:40.982Z,98071.16
2022-09-10T11:43:19.612Z,98069.50
2022-09-10T11:46:00.880Z,98067.81
2022-09-10T11:48:41.424Z,98061.94
2022-09-10T11:51:24.208Z,98069.25
2022-09-10T11:53:51.238Z,98067.00
2022-09-10T11:56:53.632Z,98065.44
2022-09-10T11:59:37.224Z,98064.63
2022-09-10T12:02:53.337Z,98069.34
2022-09-10T12:05:46.748Z,98064.22
2022-09-10T12:08:40.602Z,98071.72
2022-09-10T12:11:36.766Z,98069.09
2022-09-10T12:14:30.628Z,98056.38
2022-09-10T12:17:08.660Z,98059.34
2022-09-10T12:19:46.131Z,98057.00
2022-09-10T12:22:36.836Z,98060.25
2022-09-10T12:25:05.938Z,98061.19
2022-09-10T12:27:59.067Z,98050.22
2022-09-10T12:30:27.374Z,98055.84
2022-09-10T12:32:59.124Z,98059.69
2022-09-10T12:35:31.340Z,98052.69
2022-09-10T12:38:45.469Z,98054.34
2022-09-10T12:41:20.925Z,98053.19
2022-09-10T12:43:47.285Z,98051.47
2022-09-10T12:46:13.678Z,98054.81
2022-09-10T12:48:56.555Z,98056.19
2022-09-10T12:51:56.627Z,98052.19
2022-09-10T12:54:52.495Z,98054.28
2022-09-10T12:57:50.627Z,98060.81
2022-09-10T13:00:22.130Z,98060.53
2022-09-10T13:02:58.638Z,98064.38
2022-09-10T13:05:51.465Z,98064.97
2022-09-10T13:08:33.789Z,98058.94
2022-09-10T13:11:01.212Z,98057.47
2022-09-10T13:14:02.233Z,98067.13
2022-09-10T13:16:28.810Z,98065.47
2022-09-10T13:19:13.244Z,98063.63
2022-09-10T13:21:42.661Z,98072.09
2022-09-10T13:24:34.389Z,98063.78
2022-09-10T13:27:13.028Z,98064.72
2022-09-10T13:29:49.378Z,98070.22
2022-09-10T13:32:49.450Z,98059.06
2022-09-10T13:35:21.747Z,98060.75
2022-09-10T13:38:03.649Z,98052.13
2022-09-10T13:40:45.463Z,98060.78
2022-09-10T13:43:26.845Z,98054.09
2022-09-10T13:46:00.491Z,98050.91
2022-09-10T13:48:33.024Z,98050.06
2022-09-10T13:51:21.059Z,98047.09
2022-09-10T13:53:51.390Z,98041.25
2022-09-10T13:56:29.523Z,98039.94
2022-09-10T13:59:03.010Z,98035.94
2022-09-10T14:01:51.359Z,98032.09
2022-09-10T14:04:44.773Z,98037.59
2022-09-10T14:07:28.608Z,98037.63
2022-09-10T14:10:05.931Z,98039.28
2022-09-10T14:12:35.838Z,98042.16
2022-09-10T14:15:06.332Z,98046.50
2022-09-10T14:17:43.621Z,98039.69
2022-09-10T14:20:29.383Z,98049.28
2022-09-10T14:23:03.813Z,98051.13
2022-09-10T14:25:37.497Z,98045.59
2022-09-10T14:28:15.866Z,98043.75
2022-09-10T14:30:48.788Z,98053.59
2022-09-10T14:33:31.325Z,98041.44
2022-09-10T14:35:58.974Z,98051.94
2022-09-10T14:38:38.042Z,98058.88
2022-09-10T14:41:18.535Z,98050.72
2022-09-10T14:43:45.593Z,98056.03
2022-09-10T14:46:51.457Z,98054.22
2022-09-10T14:49:26.541Z,98053.88
2022-09-10T14:51:53.628Z,98051.38
2022-09-10T14:54:20.099Z,98048.69
2022-09-10T14:56:48.634Z,98054.47
2022-09-10T14:59:38.474Z,98048.44
2022-09-10T15:02:21.644Z,98050.13
2022-09-10T15:04:48.866Z,98048.97
2022-09-10T15:07:15.486Z,98045.94
2022-09-10T15:09:42.016Z,98061.06
2022-09-10T15:12:25.383Z,98062.22
2022-09-10T15:14:52.158Z,98062.91
2022-09-10T15:17:18.968Z,98059.63
2022-09-10T15:19:49.840Z,98061.06
2022-09-10T15:22:36.710Z,98063.91
2022-09-10T15:25:11.660Z,98069.22
2022-09-10T15:27:38.720Z,98059.31
2022-09-10T15:30:06.684Z,98072.31
2022-09-10T15:32:33.234Z,98070.19
2022-09-10T15:34:59.736Z,98074.31
2022-09-10T15:37:27.035Z,98076.31
2022-09-10T15:39:54.435Z,98071.31
2022-09-10T15:42:20.993Z,98063.59
2022-09-10T15:44:47.464Z,98075.81
2022-09-10T15:47:13.943Z,98059.41
2022-09-10T15:49:40.404Z,98065.47
2022-09-10T15:52:06.885Z,98051.50
2022-09-10T15:54:33.836Z,98055.09
2022-09-10T15:57:01.145Z,98041.94
2022-09-10T15:59:28.364Z,98050.44
2022-09-10T16:01:54.832Z,98046.66
2022-09-10T16:04:21.391Z,98043.66
2022-09-10T16:06:47.873Z,98051.47
2022-09-10T16:09:14.661Z,98056.13
2022-09-10T16:11:42.646Z,98055.94
2022-09-10T16:14:14.165Z,98054.41
2022-09-10T16:16:40.973Z,98059.41
2022-09-10T16:19:09.108Z,98054.91
2022-09-10T16:21:37.775Z,98051.25
2022-09-10T16:24:05.771Z,98057.41
2022-09-10T16:26:39.638Z,98055.91
2022-09-10T16:29:13.869Z,98053.25
2022-09-10T16:31:41.570Z,98051.56
2022-09-10T16:34:13.325Z,98056.41
2022-09-10T16:36:40.271Z,98048.41
2022-09-10T16:39:14.890Z,98051.38
2022-09-10T16:41:44.985Z,98043.16
2022-09-10T16:44:14.654Z,98045.66
2022-09-10T16:46:42.515Z,98051.16
2022-09-10T16:49:14.259Z,98049.50
2022-09-10T16:51:42.845Z,98050.13
2022-09-10T16:54:11.631Z,98045.09
2022-09-10T16:56:45.553Z,98045.44
2022-09-10T16:59:20.201Z,98047.09
2022-09-10T17:01:48.530Z,98046.59
2022-09-10T17:04:27.766Z,98051.59
2022-09-10T17:06:57.289Z,98057.44
2022-09-10T17:09:24.757Z,98061.75
2022-09-10T17:11:51.211Z,98054.75
2022-09-10T17:14:17.632Z,98063.34
2022-09-10T17:16:44.753Z,98060.69
2022-09-10T17:19:15.466Z,98059.31
2022-09-10T17:21:47.221Z,98072.63
2022-09-10T17:24:14.021Z,98079.47
2022-09-10T17:26:41.702Z,98069.78
2022-09-10T17:29:12.649Z,98069.28
2022-09-10T17:31:39.551Z,98064.44
2022-09-10T17:34:06.945Z,98063.47
2022-09-10T17:36:34.808Z,98060.47
2022-09-10T17:39:01.366Z,98070.97
2022-09-10T17:41:29.416Z,98065.25
2022-09-10T17:43:57.966Z,98070.91
2022-09-10T17:46:24.766Z,98073.34
2022-09-10T17:48:53.410Z,98074.34
2022-09-10T17:51:23.906Z,98076.69
2022-09-10T17:53:53.554Z,98080.50
2022-09-10T17:56:20.153Z,98079.22
2022-09-10T17:58:47.915Z,98073.06
2022-09-10T18:01:23.755Z,98081.41
2022-09-10T18:03:51.918Z,98081.75
2022-09-10T18:06:19.238Z,98089.72
2022-09-10T18:08:45.717Z,98097.38
2022-09-10T18:11:20.233Z,98092.38
2022-09-10T18:13:52.009Z,98099.13
2022-09-10T18:16:23.739Z,98103.44
2022-09-10T18:18:53.863Z,98113.94
2022-09-10T18:21:25.833Z,98121.22
2022-09-10T18:24:09.433Z,98122.53
2022-09-10T18:26:40.962Z,98121.88
2022-09-10T18:29:15.765Z,98125.34
2022-09-10T18:31:49.441Z,98125.19
2022-09-10T18:34:23.213Z,98122.94
2022-09-10T18:36:55.582Z,98132.19
2022-09-10T18:39:24.795Z,98133.63
2022-09-10T18:41:52.083Z,98130.19
2022-09-10T18:44:27.615Z,98137.94
2022-09-10T18:46:54.661Z,98133.75
2022-09-10T18:49:26.624Z,98135.41
2022-09-10T18:51:56.049Z,98136.41
2022-09-10T18:54:24.300Z,98146.75
2022-09-10T18:56:51.115Z,98153.63
2022-09-10T18:59:23.007Z,98153.09
2022-09-10T19:01:53.648Z,98167.91
2022-09-10T19:04:27.408Z,98168.59
2022-09-10T19:06:54.609Z,98170.41
2022-09-10T19:09:27.540Z,98165.09
2022-09-10T19:11:56.295Z,98169.59
2022-09-10T19:14:31.828Z,98175.66
2022-09-10T19:17:00.666Z,98178.31
2022-09-10T19:19:31.629Z,98180.19
2022-09-10T19:22:06.946Z,98183.16
2022-09-10T19:27:21.031Z,98187.09
2022-09-10T19:29:49.507Z,98190.84
2022-09-10T19:32:16.893Z,98192.88
2022-09-10T19:34:43.438Z,98199.47
2022-09-10T19:37:10.137Z,98200.59
2022-09-10T19:39:36.789Z,98195.16
2022-09-10T19:42:03.471Z,98205.50
2022-09-10T19:44:29.934Z,98206.69
2022-09-10T19:46:56.392Z,98207.63
2022-09-10T19:49:22.845Z,98203.69
2022-09-10T19:51:49.352Z,98202.31
2022-09-10T19:54:16.358Z,98207.63
2022-09-10T19:56:43.647Z,98209.97
2022-09-10T19:59:10.489Z,98206.78
2022-09-10T20:01:42.119Z,98215.88
2022-09-10T20:04:11.580Z,98222.91
2022-09-10T20:06:39.180Z,98222.81
2022-09-10T20:09:08.538Z,98231.06
2022-09-10T20:11:35.773Z,98230.22
2022-09-10T20:14:09.426Z,98228.59
2022-09-10T20:16:39.190Z,98225.66
2022-09-10T20:19:07.139Z,98230.06
2022-09-10T20:21:35.625Z,98233.09
2022-09-10T20:24:06.888Z,98234.19
2022-09-10T20:26:40.986Z,98240.06
2022-09-10T20:29:12.349Z,98240.22
2022-09-10T20:31:41.035Z,98244.00
2022-09-10T20:34:18.371Z,98245.28
2022-09-10T20:36:45.192Z,98251.88
2022-09-10T20:39:15.242Z,98258.03
2022-09-10T20:41:43.629Z,98261.97
2022-09-10T20:44:14.179Z,98260.56
2022-09-10T20:46:41.973Z,98268.38
2022-09-10T20:49:12.000Z,98267.44
2022-09-10T20:51:40.356Z,98274.13
2022-09-10T20:54:11.675Z,98279.97
2022-09-10T20:56:38.358Z,98279.81
2022-09-10T20:59:04.810Z,98275.63
2022-09-10T21:01:31.346Z,98275.53
2022-09-10T21:04:01.175Z,98279.47
2022-09-10T21:06:31.456Z,98286.31
2022-09-10T21:08:59.461Z,98289.34
2022-09-10T21:11:30.634Z,98294.13
2022-09-10T21:14:01.777Z,98292.06
2022-09-10T21:16:38.563Z,98295.00
2022-09-10T21:19:10.241Z,98297.81
2022-09-10T21:21:42.053Z,98306.19
2022-09-10T21:24:22.316Z,98312.34
2022-09-10T21:26:50.107Z,98314.28
2022-09-10T21:29:20.510Z,98318.63
2022-09-10T21:31:50.364Z,98309.84
2022-09-10T21:34:17.317Z,98310.50
2022-09-10T21:36:43.986Z,98316.66
2022-09-10T21:39:16.514Z,98321.28
2022-09-10T21:41:47.148Z,98322.69
2022-09-10T21:44:20.288Z,98319.59
2022-09-10T21:46:48.519Z,98322.78
2022-09-10T21:49:16.335Z,98332.28
2022-09-10T21:51:43.269Z,98336.63
2022-09-10T21:54:22.056Z,98328.22
2022-09-10T21:56:50.446Z,98336.06
2022-09-10T21:59:18.297Z,98336.50
2022-09-10T22:01:46.794Z,98337.34
2022-09-10T22:04:18.869Z,98343.22
2022-09-10T22:06:48.386Z,98344.50
2022-09-10T22:09:16.028Z,98340.84
2022-09-10T22:11:50.146Z,98351.47
2022-09-10T22:14:23.464Z,98358.38
2022-09-10T22:16:51.285Z,98356.69
2022-09-10T22:19:24.264Z,98361.88
2022-09-10T22:21:53.808Z,98354.72
2022-09-10T22:24:20.337Z,98359.38
2022-09-10T22:26:47.313Z,98356.31
2022-09-10T22:29:17.843Z,98361.31
2022-09-10T22:31:44.926Z,98359.78
2022-09-10T22:34:14.462Z,98354.72
2022-09-10T22:36:44.199Z,98366.03
2022-09-10T22:39:17.852Z,98361.03
2022-09-10T22:41:45.957Z,98362.00
2022-09-10T22:44:13.164Z,98362.44
2022-09-10T22:46:41.213Z,98368.16
2022-09-10T22:49:08.666Z,98365.78
2022-09-10T22:51:40.724Z,98367.50
2022-09-10T22:54:08.331Z,98375.06
2022-09-10T22:56:38.084Z,98383.69
2022-09-10T22:59:06.596Z,98372.81
2022-09-10T23:01:38.053Z,98385.66
2022-09-10T23:04:07.610Z,98387.47
2022-09-10T23:06:37.411Z,98391.81
2022-09-10T23:09:12.349Z,98401.31
2022-09-10T23:11:40.335Z,98401.59
2022-09-10T23:14:12.891Z,98407.72
2022-09-10T23:16:48.261Z,98405.50
2022-09-10T23:19:19.059Z,98419.06
2022-09-10T23:21:49.426Z,98416.97
2022-09-10T23:24:20.282Z,98426.19
2022-09-10T23:26:47.071Z,98424.22
2022-09-10T23:29:17.798Z,98424.88
2022-09-10T23:31:46.227Z,98426.41
2022-09-10T23:34:16.919Z,98427.53
2022-09-10T23:36:46.605Z,98431.19
2022-09-10T23:39:20.328Z,98432.81
2022-09-10T23:41:48.637Z,98438.44
2022-09-10T23:44:16.092Z,98448.63
2022-09-10T23:46:43.179Z,98454.75
2022-09-10T23:49:09.991Z,98458.09
2022-09-10T23:51:36.999Z,98461.28
2022-09-10T23:54:04.063Z,98464.75
2022-09-10T23:56:31.771Z,98465.44
2022-09-10T23:58:59.443Z,98457.22
